sensor_id;sensor_type;location;lat;lon;timestamp;P1;durP1;ratioP1;P2;durP2;ratioP2
58436;SDS011;73022;43.604;10.572;2023-09-30T00:01:24;9.00;;;6.22;;
58436;SDS011;73022;43.604;10.572;2023-09-30T00:03:50;8.93;;;6.85;;
58436;SDS011;73022;43.604;10.572;2023-09-30T00:06:15;8.50;;;6.18;;
58436;SDS011;73022;43.604;10.572;2023-09-30T00:08:41;8.15;;;6.57;;
58436;SDS011;73022;43.604;10.572;2023-09-30T00:11:08;9.55;;;6.25;;
58436;SDS011;73022;43.604;10.572;2023-09-30T00:13:35;8.23;;;6.63;;
58436;SDS011;73022;43.604;10.572;2023-09-30T00:16:01;8.13;;;6.32;;
58436;SDS011;73022;43.604;10.572;2023-09-30T00:18:27;9.80;;;6.55;;
58436;SDS011;73022;43.604;10.572;2023-09-30T00:20:53;11.48;;;6.13;;
58436;SDS011;73022;43.604;10.572;2023-09-30T00:23:19;8.10;;;6.00;;
58436;SDS011;73022;43.604;10.572;2023-09-30T00:28:12;7.97;;;5.72;;
58436;SDS011;73022;43.604;10.572;2023-09-30T00:30:38;9.15;;;6.75;;
58436;SDS011;73022;43.604;10.572;2023-09-30T00:33:04;8.48;;;5.90;;
58436;SDS011;73022;43.604;10.572;2023-09-30T00:35:31;6.30;;;5.43;;
58436;SDS011;73022;43.604;10.572;2023-09-30T00:38:00;7.90;;;5.80;;
58436;SDS011;73022;43.604;10.572;2023-09-30T00:40:26;7.57;;;6.30;;
58436;SDS011;73022;43.604;10.572;2023-09-30T00:42:52;7.15;;;5.70;;
58436;SDS011;73022;43.604;10.572;2023-09-30T00:45:18;7.32;;;5.93;;
58436;SDS011;73022;43.604;10.572;2023-09-30T00:47:44;8.88;;;6.55;;
58436;SDS011;73022;43.604;10.572;2023-09-30T00:50:10;9.55;;;5.72;;
58436;SDS011;73022;43.604;10.572;2023-09-30T00:52:38;7.00;;;5.95;;
58436;SDS011;73022;43.604;10.572;2023-09-30T00:55:04;6.28;;;5.65;;
58436;SDS011;73022;43.604;10.572;2023-09-30T00:57:32;10.07;;;5.82;;
58436;SDS011;73022;43.604;10.572;2023-09-30T00:59:59;6.78;;;6.07;;
58436;SDS011;73022;43.604;10.572;2023-09-30T01:02:26;9.48;;;5.85;;
58436;SDS011;73022;43.604;10.572;2023-09-30T01:04:52;10.25;;;6.82;;
58436;SDS011;73022;43.604;10.572;2023-09-30T01:07:19;6.85;;;5.97;;
58436;SDS011;73022;43.604;10.572;2023-09-30T01:09:47;7.15;;;5.65;;
58436;SDS011;73022;43.604;10.572;2023-09-30T01:12:14;6.20;;;5.60;;
58436;SDS011;73022;43.604;10.572;2023-09-30T01:14:41;7.05;;;5.88;;
58436;SDS011;73022;43.604;10.572;2023-09-30T01:17:08;7.63;;;5.53;;
58436;SDS011;73022;43.604;10.572;2023-09-30T01:19:35;6.85;;;5.88;;
58436;SDS011;73022;43.604;10.572;2023-09-30T01:22:01;7.45;;;6.28;;
58436;SDS011;73022;43.604;10.572;2023-09-30T01:24:30;7.20;;;6.40;;
58436;SDS011;73022;43.604;10.572;2023-09-30T01:26:56;9.13;;;5.93;;
58436;SDS011;73022;43.604;10.572;2023-09-30T01:29:23;10.73;;;6.00;;
58436;SDS011;73022;43.604;10.572;2023-09-30T01:31:51;8.73;;;6.47;;
58436;SDS011;73022;43.604;10.572;2023-09-30T01:34:17;6.65;;;6.03;;
58436;SDS011;73022;43.604;10.572;2023-09-30T01:36:43;7.05;;;6.10;;
58436;SDS011;73022;43.604;10.572;2023-09-30T01:39:10;8.18;;;6.10;;
58436;SDS011;73022;43.604;10.572;2023-09-30T01:41:37;9.43;;;5.95;;
58436;SDS011;73022;43.604;10.572;2023-09-30T01:44:06;7.78;;;6.88;;
58436;SDS011;73022;43.604;10.572;2023-09-30T01:46:33;10.13;;;5.80;;
58436;SDS011;73022;43.604;10.572;2023-09-30T01:48:59;8.93;;;6.30;;
58436;SDS011;73022;43.604;10.572;2023-09-30T01:51:25;6.70;;;5.78;;
58436;SDS011;73022;43.604;10.572;2023-09-30T01:53:53;7.43;;;5.97;;
58436;SDS011;73022;43.604;10.572;2023-09-30T01:56:19;9.13;;;6.28;;
58436;SDS011;73022;43.604;10.572;2023-09-30T01:58:45;7.32;;;6.22;;
58436;SDS011;73022;43.604;10.572;2023-09-30T02:01:10;8.00;;;6.30;;
58436;SDS011;73022;43.604;10.572;2023-09-30T02:03:36;10.23;;;6.30;;
58436;SDS011;73022;43.604;10.572;2023-09-30T02:06:03;7.10;;;5.85;;
58436;SDS011;73022;43.604;10.572;2023-09-30T02:08:30;6.87;;;5.93;;
58436;SDS011;73022;43.604;10.572;2023-09-30T02:10:56;8.93;;;5.85;;
58436;SDS011;73022;43.604;10.572;2023-09-30T02:13:22;9.38;;;6.35;;
58436;SDS011;73022;43.604;10.572;2023-09-30T02:15:48;8.75;;;6.40;;
58436;SDS011;73022;43.604;10.572;2023-09-30T02:18:14;8.75;;;6.68;;
58436;SDS011;73022;43.604;10.572;2023-09-30T02:20:40;7.57;;;6.30;;
58436;SDS011;73022;43.604;10.572;2023-09-30T02:23:07;7.53;;;6.50;;
58436;SDS011;73022;43.604;10.572;2023-09-30T02:25:38;7.70;;;6.03;;
58436;SDS011;73022;43.604;10.572;2023-09-30T02:28:05;8.77;;;6.57;;
58436;SDS011;73022;43.604;10.572;2023-09-30T02:30:32;6.88;;;6.03;;
58436;SDS011;73022;43.604;10.572;2023-09-30T02:32:59;7.28;;;6.43;;
58436;SDS011;73022;43.604;10.572;2023-09-30T02:35:25;9.07;;;5.93;;
58436;SDS011;73022;43.604;10.572;2023-09-30T02:37:51;8.82;;;6.53;;
58436;SDS011;73022;43.604;10.572;2023-09-30T02:40:18;8.80;;;6.13;;
58436;SDS011;73022;43.604;10.572;2023-09-30T02:42:45;8.50;;;6.55;;
58436;SDS011;73022;43.604;10.572;2023-09-30T02:45:11;9.68;;;6.00;;
58436;SDS011;73022;43.604;10.572;2023-09-30T02:47:38;8.37;;;5.87;;
58436;SDS011;73022;43.604;10.572;2023-09-30T02:50:05;7.40;;;5.97;;
58436;SDS011;73022;43.604;10.572;2023-09-30T02:52:39;8.85;;;6.07;;
58436;SDS011;73022;43.604;10.572;2023-09-30T02:55:09;8.55;;;5.70;;
58436;SDS011;73022;43.604;10.572;2023-09-30T02:57:36;7.95;;;6.75;;
58436;SDS011;73022;43.604;10.572;2023-09-30T03:00:06;8.13;;;5.93;;
58436;SDS011;73022;43.604;10.572;2023-09-30T03:02:55;8.15;;;6.00;;
58436;SDS011;73022;43.604;10.572;2023-09-30T03:05:21;9.07;;;5.75;;
58436;SDS011;73022;43.604;10.572;2023-09-30T03:07:48;8.45;;;6.47;;
58436;SDS011;73022;43.604;10.572;2023-09-30T03:10:17;8.18;;;5.93;;
58436;SDS011;73022;43.604;10.572;2023-09-30T03:12:49;10.27;;;6.22;;
58436;SDS011;73022;43.604;10.572;2023-09-30T03:15:16;6.85;;;6.18;;
58436;SDS011;73022;43.604;10.572;2023-09-30T03:17:42;8.75;;;5.70;;
58436;SDS011;73022;43.604;10.572;2023-09-30T03:20:09;7.45;;;5.57;;
58436;SDS011;73022;43.604;10.572;2023-09-30T03:22:39;8.48;;;6.03;;
58436;SDS011;73022;43.604;10.572;2023-09-30T03:25:06;8.52;;;5.80;;
58436;SDS011;73022;43.604;10.572;2023-09-30T03:27:33;6.38;;;5.75;;
58436;SDS011;73022;43.604;10.572;2023-09-30T03:29:59;7.30;;;5.97;;
58436;SDS011;73022;43.604;10.572;2023-09-30T03:32:26;7.93;;;5.43;;
58436;SDS011;73022;43.604;10.572;2023-09-30T03:34:53;10.52;;;6.20;;
58436;SDS011;73022;43.604;10.572;2023-09-30T03:37:19;7.57;;;6.00;;
58436;SDS011;73022;43.604;10.572;2023-09-30T03:39:45;8.50;;;5.65;;
58436;SDS011;73022;43.604;10.572;2023-09-30T03:42:14;11.00;;;5.68;;
58436;SDS011;73022;43.604;10.572;2023-09-30T03:44:40;8.10;;;6.07;;
58436;SDS011;73022;43.604;10.572;2023-09-30T03:47:06;8.30;;;5.93;;
58436;SDS011;73022;43.604;10.572;2023-09-30T03:49:33;10.02;;;6.22;;
58436;SDS011;73022;43.604;10.572;2023-09-30T03:51:59;7.40;;;6.00;;
58436;SDS011;73022;43.604;10.572;2023-09-30T03:54:27;12.18;;;6.20;;
58436;SDS011;73022;43.604;10.572;2023-09-30T03:56:53;10.30;;;6.20;;
58436;SDS011;73022;43.604;10.572;2023-09-30T03:59:18;8.38;;;6.25;;
58436;SDS011;73022;43.604;10.572;2023-09-30T04:01:44;5.95;;;5.35;;
58436;SDS011;73022;43.604;10.572;2023-09-30T04:04:13;7.05;;;6.10;;
58436;SDS011;73022;43.604;10.572;2023-09-30T04:06:39;6.72;;;6.05;;
58436;SDS011;73022;43.604;10.572;2023-09-30T04:09:05;10.02;;;6.00;;
58436;SDS011;73022;43.604;10.572;2023-09-30T04:11:37;8.02;;;5.95;;
58436;SDS011;73022;43.604;10.572;2023-09-30T04:14:05;6.15;;;5.50;;
58436;SDS011;73022;43.604;10.572;2023-09-30T04:16:33;9.23;;;6.55;;
58436;SDS011;73022;43.604;10.572;2023-09-30T04:18:59;8.52;;;6.25;;
58436;SDS011;73022;43.604;10.572;2023-09-30T04:21:26;9.43;;;6.35;;
58436;SDS011;73022;43.604;10.572;2023-09-30T04:23:54;6.65;;;5.95;;
58436;SDS011;73022;43.604;10.572;2023-09-30T04:26:19;8.50;;;6.13;;
58436;SDS011;73022;43.604;10.572;2023-09-30T04:28:45;7.93;;;5.95;;
58436;SDS011;73022;43.604;10.572;2023-09-30T04:31:11;7.72;;;6.18;;
58436;SDS011;73022;43.604;10.572;2023-09-30T04:33:38;8.50;;;6.23;;
58436;SDS011;73022;43.604;10.572;2023-09-30T04:36:07;9.37;;;6.10;;
58436;SDS011;73022;43.604;10.572;2023-09-30T04:38:34;9.32;;;5.88;;
58436;SDS011;73022;43.604;10.572;2023-09-30T04:41:04;7.55;;;6.28;;
58436;SDS011;73022;43.604;10.572;2023-09-30T04:43:33;11.15;;;6.20;;
58436;SDS011;73022;43.604;10.572;2023-09-30T04:45:59;10.38;;;6.40;;
58436;SDS011;73022;43.604;10.572;2023-09-30T04:48:25;9.48;;;5.78;;
58436;SDS011;73022;43.604;10.572;2023-09-30T04:50:51;8.00;;;6.20;;
58436;SDS011;73022;43.604;10.572;2023-09-30T04:53:18;6.90;;;6.20;;
58436;SDS011;73022;43.604;10.572;2023-09-30T04:55:44;7.30;;;6.47;;
58436;SDS011;73022;43.604;10.572;2023-09-30T04:58:10;6.97;;;6.05;;
58436;SDS011;73022;43.604;10.572;2023-09-30T05:00:36;8.55;;;6.60;;
58436;SDS011;73022;43.604;10.572;2023-09-30T05:03:02;9.13;;;6.15;;
58436;SDS011;73022;43.604;10.572;2023-09-30T05:07:56;7.22;;;5.85;;
58436;SDS011;73022;43.604;10.572;2023-09-30T05:10:23;8.32;;;6.10;;
58436;SDS011;73022;43.604;10.572;2023-09-30T05:12:50;10.23;;;5.72;;
58436;SDS011;73022;43.604;10.572;2023-09-30T05:15:20;6.90;;;6.00;;
58436;SDS011;73022;43.604;10.572;2023-09-30T05:17:46;14.10;;;7.50;;
58436;SDS011;73022;43.604;10.572;2023-09-30T05:20:13;9.93;;;6.38;;
58436;SDS011;73022;43.604;10.572;2023-09-30T05:22:42;9.38;;;6.45;;
58436;SDS011;73022;43.604;10.572;2023-09-30T05:25:12;10.60;;;6.93;;
58436;SDS011;73022;43.604;10.572;2023-09-30T05:27:41;8.25;;;6.63;;
58436;SDS011;73022;43.604;10.572;2023-09-30T05:30:07;7.80;;;6.80;;
58436;SDS011;73022;43.604;10.572;2023-09-30T05:32:34;10.88;;;7.25;;
58436;SDS011;73022;43.604;10.572;2023-09-30T05:35:03;9.57;;;6.60;;
58436;SDS011;73022;43.604;10.572;2023-09-30T05:37:30;12.13;;;6.80;;
58436;SDS011;73022;43.604;10.572;2023-09-30T05:39:56;7.97;;;6.85;;
58436;SDS011;73022;43.604;10.572;2023-09-30T05:42:22;10.20;;;7.05;;
58436;SDS011;73022;43.604;10.572;2023-09-30T05:44:48;10.02;;;7.55;;
58436;SDS011;73022;43.604;10.572;2023-09-30T05:47:14;9.35;;;6.70;;
58436;SDS011;73022;43.604;10.572;2023-09-30T05:49:41;7.87;;;6.03;;
58436;SDS011;73022;43.604;10.572;2023-09-30T05:52:07;10.05;;;6.72;;
58436;SDS011;73022;43.604;10.572;2023-09-30T05:54:33;11.10;;;6.72;;
58436;SDS011;73022;43.604;10.572;2023-09-30T05:56:58;12.27;;;6.97;;
58436;SDS011;73022;43.604;10.572;2023-09-30T05:59:26;9.93;;;6.22;;
58436;SDS011;73022;43.604;10.572;2023-09-30T06:01:53;9.68;;;6.05;;
58436;SDS011;73022;43.604;10.572;2023-09-30T06:04:19;9.63;;;6.25;;
58436;SDS011;73022;43.604;10.572;2023-09-30T06:06:46;10.70;;;6.82;;
58436;SDS011;73022;43.604;10.572;2023-09-30T06:09:12;10.50;;;6.75;;
58436;SDS011;73022;43.604;10.572;2023-09-30T06:11:38;7.05;;;6.40;;
58436;SDS011;73022;43.604;10.572;2023-09-30T06:14:06;9.10;;;7.60;;
58436;SDS011;73022;43.604;10.572;2023-09-30T06:16:32;15.13;;;7.07;;
58436;SDS011;73022;43.604;10.572;2023-09-30T06:18:59;11.65;;;7.45;;
58436;SDS011;73022;43.604;10.572;2023-09-30T06:21:25;11.05;;;7.82;;
58436;SDS011;73022;43.604;10.572;2023-09-30T06:23:54;9.95;;;7.57;;
58436;SDS011;73022;43.604;10.572;2023-09-30T06:26:21;11.23;;;7.65;;
58436;SDS011;73022;43.604;10.572;2023-09-30T06:28:50;11.90;;;8.80;;
58436;SDS011;73022;43.604;10.572;2023-09-30T06:31:19;11.85;;;7.88;;
58436;SDS011;73022;43.604;10.572;2023-09-30T06:33:45;12.00;;;7.80;;
58436;SDS011;73022;43.604;10.572;2023-09-30T06:36:12;17.00;;;8.55;;
58436;SDS011;73022;43.604;10.572;2023-09-30T06:38:43;12.45;;;7.72;;
58436;SDS011;73022;43.604;10.572;2023-09-30T06:41:14;16.73;;;8.40;;
58436;SDS011;73022;43.604;10.572;2023-09-30T06:43:41;18.33;;;7.95;;
58436;SDS011;73022;43.604;10.572;2023-09-30T06:46:07;12.15;;;8.07;;
58436;SDS011;73022;43.604;10.572;2023-09-30T06:48:37;12.85;;;7.95;;
58436;SDS011;73022;43.604;10.572;2023-09-30T06:51:03;12.63;;;8.20;;
58436;SDS011;73022;43.604;10.572;2023-09-30T06:53:28;13.57;;;8.35;;
58436;SDS011;73022;43.604;10.572;2023-09-30T06:55:54;13.15;;;8.20;;
58436;SDS011;73022;43.604;10.572;2023-09-30T06:58:20;12.20;;;8.10;;
58436;SDS011;73022;43.604;10.572;2023-09-30T07:00:47;12.93;;;7.90;;
58436;SDS011;73022;43.604;10.572;2023-09-30T07:03:15;13.95;;;8.05;;
58436;SDS011;73022;43.604;10.572;2023-09-30T07:05:41;12.20;;;7.97;;
58436;SDS011;73022;43.604;10.572;2023-09-30T07:08:09;9.48;;;8.13;;
58436;SDS011;73022;43.604;10.572;2023-09-30T07:10:35;10.68;;;9.00;;
58436;SDS011;73022;43.604;10.572;2023-09-30T07:13:03;11.82;;;8.80;;
58436;SDS011;73022;43.604;10.572;2023-09-30T07:15:32;8.75;;;7.57;;
58436;SDS011;73022;43.604;10.572;2023-09-30T07:17:58;12.95;;;8.77;;
58436;SDS011;73022;43.604;10.572;2023-09-30T07:20:24;15.23;;;8.57;;
58436;SDS011;73022;43.604;10.572;2023-09-30T07:22:50;13.52;;;8.00;;
58436;SDS011;73022;43.604;10.572;2023-09-30T07:25:16;9.68;;;8.50;;
58436;SDS011;73022;43.604;10.572;2023-09-30T07:27:45;10.68;;;7.75;;
58436;SDS011;73022;43.604;10.572;2023-09-30T07:30:12;16.27;;;8.32;;
58436;SDS011;73022;43.604;10.572;2023-09-30T07:32:43;11.88;;;9.10;;
58436;SDS011;73022;43.604;10.572;2023-09-30T07:35:10;9.18;;;8.15;;
58436;SDS011;73022;43.604;10.572;2023-09-30T07:37:37;12.57;;;8.10;;
58436;SDS011;73022;43.604;10.572;2023-09-30T07:40:03;9.95;;;7.60;;
58436;SDS011;73022;43.604;10.572;2023-09-30T07:42:30;10.35;;;7.65;;
58436;SDS011;73022;43.604;10.572;2023-09-30T07:44:56;9.88;;;7.60;;
58436;SDS011;73022;43.604;10.572;2023-09-30T07:47:22;11.77;;;7.68;;
58436;SDS011;73022;43.604;10.572;2023-09-30T07:49:48;11.40;;;8.10;;
58436;SDS011;73022;43.604;10.572;2023-09-30T07:52:14;10.55;;;7.53;;
58436;SDS011;73022;43.604;10.572;2023-09-30T07:54:40;12.10;;;7.30;;
58436;SDS011;73022;43.604;10.572;2023-09-30T07:57:06;9.57;;;7.28;;
58436;SDS011;73022;43.604;10.572;2023-09-30T07:59:32;12.20;;;7.78;;
58436;SDS011;73022;43.604;10.572;2023-09-30T08:01:58;8.57;;;7.05;;
58436;SDS011;73022;43.604;10.572;2023-09-30T08:04:24;9.30;;;8.10;;
58436;SDS011;73022;43.604;10.572;2023-09-30T08:06:50;10.82;;;7.88;;
58436;SDS011;73022;43.604;10.572;2023-09-30T08:09:17;14.45;;;8.43;;
58436;SDS011;73022;43.604;10.572;2023-09-30T08:11:44;9.50;;;7.68;;
58436;SDS011;73022;43.604;10.572;2023-09-30T08:14:10;11.52;;;7.40;;
58436;SDS011;73022;43.604;10.572;2023-09-30T08:16:36;10.60;;;7.75;;
58436;SDS011;73022;43.604;10.572;2023-09-30T08:19:03;14.25;;;7.95;;
58436;SDS011;73022;43.604;10.572;2023-09-30T08:21:29;8.97;;;7.60;;
58436;SDS011;73022;43.604;10.572;2023-09-30T08:23:56;11.85;;;8.07;;
58436;SDS011;73022;43.604;10.572;2023-09-30T08:26:22;12.38;;;7.72;;
58436;SDS011;73022;43.604;10.572;2023-09-30T08:28:48;13.35;;;7.93;;
58436;SDS011;73022;43.604;10.572;2023-09-30T08:31:15;12.27;;;8.05;;
58436;SDS011;73022;43.604;10.572;2023-09-30T08:33:40;10.40;;;7.70;;
58436;SDS011;73022;43.604;10.572;2023-09-30T08:36:09;12.57;;;7.45;;
58436;SDS011;73022;43.604;10.572;2023-09-30T08:38:36;12.48;;;8.38;;
58436;SDS011;73022;43.604;10.572;2023-09-30T08:41:06;9.98;;;7.63;;
58436;SDS011;73022;43.604;10.572;2023-09-30T08:43:39;11.32;;;7.88;;
58436;SDS011;73022;43.604;10.572;2023-09-30T08:46:06;12.35;;;8.25;;
58436;SDS011;73022;43.604;10.572;2023-09-30T08:48:33;8.85;;;7.78;;
58436;SDS011;73022;43.604;10.572;2023-09-30T08:51:00;11.80;;;8.30;;
58436;SDS011;73022;43.604;10.572;2023-09-30T08:53:28;12.43;;;8.50;;
58436;SDS011;73022;43.604;10.572;2023-09-30T08:55:55;9.98;;;8.07;;
58436;SDS011;73022;43.604;10.572;2023-09-30T08:58:26;11.80;;;8.25;;
58436;SDS011;73022;43.604;10.572;2023-09-30T09:00:54;12.05;;;8.10;;
58436;SDS011;73022;43.604;10.572;2023-09-30T09:03:21;11.32;;;8.15;;
58436;SDS011;73022;43.604;10.572;2023-09-30T09:05:56;8.93;;;7.55;;
58436;SDS011;73022;43.604;10.572;2023-09-30T09:08:26;11.00;;;8.07;;
58436;SDS011;73022;43.604;10.572;2023-09-30T09:10:56;10.32;;;8.50;;
58436;SDS011;73022;43.604;10.572;2023-09-30T09:13:23;14.40;;;8.27;;
58436;SDS011;73022;43.604;10.572;2023-09-30T09:16:05;11.02;;;8.13;;
58436;SDS011;73022;43.604;10.572;2023-09-30T09:18:32;9.88;;;7.93;;
58436;SDS011;73022;43.604;10.572;2023-09-30T09:21:08;10.87;;;8.23;;
58436;SDS011;73022;43.604;10.572;2023-09-30T09:23:40;11.45;;;9.35;;
58436;SDS011;73022;43.604;10.572;2023-09-30T09:26:28;9.07;;;8.15;;
58436;SDS011;73022;43.604;10.572;2023-09-30T09:31:27;8.90;;;8.00;;
58436;SDS011;73022;43.604;10.572;2023-09-30T09:33:54;18.48;;;9.23;;
58436;SDS011;73022;43.604;10.572;2023-09-30T09:36:20;15.43;;;9.80;;
58436;SDS011;73022;43.604;10.572;2023-09-30T09:38:47;10.27;;;8.57;;
58436;SDS011;73022;43.604;10.572;2023-09-30T09:41:20;12.85;;;8.73;;
58436;SDS011;73022;43.604;10.572;2023-09-30T09:43:49;11.23;;;8.85;;
58436;SDS011;73022;43.604;10.572;2023-09-30T09:46:16;11.65;;;8.32;;
58436;SDS011;73022;43.604;10.572;2023-09-30T09:48:42;13.60;;;9.10;;
58436;SDS011;73022;43.604;10.572;2023-09-30T09:51:11;12.38;;;8.43;;
58436;SDS011;73022;43.604;10.572;2023-09-30T09:53:39;10.55;;;8.43;;
58436;SDS011;73022;43.604;10.572;2023-09-30T09:56:10;13.07;;;8.85;;
58436;SDS011;73022;43.604;10.572;2023-09-30T09:58:38;9.65;;;8.05;;
58436;SDS011;73022;43.604;10.572;2023-09-30T10:01:06;16.98;;;9.23;;
58436;SDS011;73022;43.604;10.572;2023-09-30T10:03:32;20.13;;;9.15;;
58436;SDS011;73022;43.604;10.572;2023-09-30T10:05:59;26.17;;;10.13;;
58436;SDS011;73022;43.604;10.572;2023-09-30T10:08:33;22.13;;;9.20;;
58436;SDS011;73022;43.604;10.572;2023-09-30T10:11:03;31.13;;;10.20;;
58436;SDS011;73022;43.604;10.572;2023-09-30T10:19:09;22.42;;;9.85;;
58436;SDS011;73022;43.604;10.572;2023-09-30T10:21:36;20.13;;;9.18;;
58436;SDS011;73022;43.604;10.572;2023-09-30T10:29:40;15.25;;;8.55;;
58436;SDS011;73022;43.604;10.572;2023-09-30T10:32:10;15.65;;;8.90;;
58436;SDS011;73022;43.604;10.572;2023-09-30T10:34:36;16.48;;;8.38;;
58436;SDS011;73022;43.604;10.572;2023-09-30T10:39:58;17.70;;;8.85;;
58436;SDS011;73022;43.604;10.572;2023-09-30T10:48:37;18.25;;;9.30;;
58436;SDS011;73022;43.604;10.572;2023-09-30T10:50:58;16.33;;;9.15;;
58436;SDS011;73022;43.604;10.572;2023-09-30T10:53:26;13.82;;;8.77;;
58436;SDS011;73022;43.604;10.572;2023-09-30T10:55:57;13.40;;;8.43;;
58436;SDS011;73022;43.604;10.572;2023-09-30T11:01:21;11.48;;;8.38;;
58436;SDS011;73022;43.604;10.572;2023-09-30T11:03:49;11.30;;;8.45;;
58436;SDS011;73022;43.604;10.572;2023-09-30T11:06:22;13.15;;;8.90;;
58436;SDS011;73022;43.604;10.572;2023-09-30T11:08:52;14.70;;;8.55;;
58436;SDS011;73022;43.604;10.572;2023-09-30T11:11:41;14.48;;;8.90;;
58436;SDS011;73022;43.604;10.572;2023-09-30T11:14:30;12.57;;;8.77;;
58436;SDS011;73022;43.604;10.572;2023-09-30T11:16:58;14.98;;;8.63;;
58436;SDS011;73022;43.604;10.572;2023-09-30T11:19:27;12.75;;;8.18;;
58436;SDS011;73022;43.604;10.572;2023-09-30T11:22:00;11.63;;;7.85;;
58436;SDS011;73022;43.604;10.572;2023-09-30T11:24:26;11.60;;;8.27;;
58436;SDS011;73022;43.604;10.572;2023-09-30T11:29:23;13.75;;;7.88;;
58436;SDS011;73022;43.604;10.572;2023-09-30T11:31:50;11.52;;;7.15;;
58436;SDS011;73022;43.604;10.572;2023-09-30T11:34:16;14.25;;;7.95;;
58436;SDS011;73022;43.604;10.572;2023-09-30T11:36:50;10.35;;;8.00;;
58436;SDS011;73022;43.604;10.572;2023-09-30T11:41:51;11.02;;;7.90;;
58436;SDS011;73022;43.604;10.572;2023-09-30T11:44:17;12.95;;;8.15;;
58436;SDS011;73022;43.604;10.572;2023-09-30T11:46:51;10.40;;;7.45;;
58436;SDS011;73022;43.604;10.572;2023-09-30T11:51:54;11.45;;;7.43;;
58436;SDS011;73022;43.604;10.572;2023-09-30T11:54:21;11.45;;;7.95;;
58436;SDS011;73022;43.604;10.572;2023-09-30T11:56:48;13.15;;;7.75;;
58436;SDS011;73022;43.604;10.572;2023-09-30T11:59:16;12.93;;;8.13;;
58436;SDS011;73022;43.604;10.572;2023-09-30T12:01:45;13.52;;;7.93;;
58436;SDS011;73022;43.604;10.572;2023-09-30T12:04:14;9.48;;;7.38;;
58436;SDS011;73022;43.604;10.572;2023-09-30T12:06:43;9.65;;;7.40;;
58436;SDS011;73022;43.604;10.572;2023-09-30T12:09:09;11.10;;;6.80;;
58436;SDS011;73022;43.604;10.572;2023-09-30T12:11:39;12.20;;;8.18;;
58436;SDS011;73022;43.604;10.572;2023-09-30T12:14:05;9.15;;;7.22;;
58436;SDS011;73022;43.604;10.572;2023-09-30T12:16:31;8.95;;;7.57;;
58436;SDS011;73022;43.604;10.572;2023-09-30T12:19:00;12.45;;;7.80;;
58436;SDS011;73022;43.604;10.572;2023-09-30T12:21:26;11.32;;;7.70;;
58436;SDS011;73022;43.604;10.572;2023-09-30T12:23:52;10.68;;;7.45;;
58436;SDS011;73022;43.604;10.572;2023-09-30T12:26:18;9.15;;;7.68;;
58436;SDS011;73022;43.604;10.572;2023-09-30T12:28:45;12.00;;;7.57;;
58436;SDS011;73022;43.604;10.572;2023-09-30T12:31:12;10.23;;;7.43;;
58436;SDS011;73022;43.604;10.572;2023-09-30T12:33:39;10.45;;;7.55;;
58436;SDS011;73022;43.604;10.572;2023-09-30T12:36:06;10.93;;;7.38;;
58436;SDS011;73022;43.604;10.572;2023-09-30T12:38:33;9.15;;;7.50;;
58436;SDS011;73022;43.604;10.572;2023-09-30T12:40:59;10.77;;;7.18;;
58436;SDS011;73022;43.604;10.572;2023-09-30T12:43:26;7.95;;;7.13;;
58436;SDS011;73022;43.604;10.572;2023-09-30T12:45:52;8.93;;;7.10;;
58436;SDS011;73022;43.604;10.572;2023-09-30T12:48:18;10.50;;;7.03;;
58436;SDS011;73022;43.604;10.572;2023-09-30T12:50:44;9.75;;;7.18;;
58436;SDS011;73022;43.604;10.572;2023-09-30T12:53:10;9.55;;;6.35;;
58436;SDS011;73022;43.604;10.572;2023-09-30T12:55:36;8.75;;;6.75;;
58436;SDS011;73022;43.604;10.572;2023-09-30T12:58:02;7.45;;;6.55;;
58436;SDS011;73022;43.604;10.572;2023-09-30T13:00:30;10.88;;;6.80;;
58436;SDS011;73022;43.604;10.572;2023-09-30T13:02:58;9.05;;;6.63;;
58436;SDS011;73022;43.604;10.572;2023-09-30T13:05:25;11.88;;;6.40;;
58436;SDS011;73022;43.604;10.572;2023-09-30T13:07:52;9.70;;;6.55;;
58436;SDS011;73022;43.604;10.572;2023-09-30T13:10:21;12.02;;;7.57;;
58436;SDS011;73022;43.604;10.572;2023-09-30T13:12:51;8.45;;;7.15;;
58436;SDS011;73022;43.604;10.572;2023-09-30T13:15:19;8.02;;;6.65;;
58436;SDS011;73022;43.604;10.572;2023-09-30T13:20:12;9.13;;;7.25;;
58436;SDS011;73022;43.604;10.572;2023-09-30T13:22:38;9.32;;;6.60;;
58436;SDS011;73022;43.604;10.572;2023-09-30T13:25:07;8.07;;;6.55;;
58436;SDS011;73022;43.604;10.572;2023-09-30T13:27:33;8.40;;;6.32;;
58436;SDS011;73022;43.604;10.572;2023-09-30T13:29:59;9.45;;;7.05;;
58436;SDS011;73022;43.604;10.572;2023-09-30T13:32:26;9.35;;;6.85;;
58436;SDS011;73022;43.604;10.572;2023-09-30T13:34:53;8.70;;;6.95;;
58436;SDS011;73022;43.604;10.572;2023-09-30T13:37:19;10.70;;;7.07;;
58436;SDS011;73022;43.604;10.572;2023-09-30T13:39:45;10.75;;;7.07;;
58436;SDS011;73022;43.604;10.572;2023-09-30T13:42:11;9.82;;;6.60;;
58436;SDS011;73022;43.604;10.572;2023-09-30T13:44:37;9.75;;;6.43;;
58436;SDS011;73022;43.604;10.572;2023-09-30T13:47:03;9.13;;;7.18;;
58436;SDS011;73022;43.604;10.572;2023-09-30T13:49:29;7.97;;;7.10;;
58436;SDS011;73022;43.604;10.572;2023-09-30T13:51:59;8.02;;;6.43;;
58436;SDS011;73022;43.604;10.572;2023-09-30T13:54:25;8.55;;;6.65;;
58436;SDS011;73022;43.604;10.572;2023-09-30T13:56:51;7.65;;;6.75;;
58436;SDS011;73022;43.604;10.572;2023-09-30T13:59:17;8.73;;;7.05;;
58436;SDS011;73022;43.604;10.572;2023-09-30T14:01:42;11.20;;;7.10;;
58436;SDS011;73022;43.604;10.572;2023-09-30T14:04:08;7.53;;;6.53;;
58436;SDS011;73022;43.604;10.572;2023-09-30T14:06:35;8.43;;;6.90;;
58436;SDS011;73022;43.604;10.572;2023-09-30T14:09:02;7.80;;;6.13;;
58436;SDS011;73022;43.604;10.572;2023-09-30T14:11:29;6.90;;;6.20;;
58436;SDS011;73022;43.604;10.572;2023-09-30T14:13:56;7.15;;;6.45;;
58436;SDS011;73022;43.604;10.572;2023-09-30T14:16:22;10.13;;;6.80;;
58436;SDS011;73022;43.604;10.572;2023-09-30T14:18:48;8.70;;;6.45;;
58436;SDS011;73022;43.604;10.572;2023-09-30T14:21:15;8.38;;;6.55;;
58436;SDS011;73022;43.604;10.572;2023-09-30T14:23:41;8.18;;;6.35;;
58436;SDS011;73022;43.604;10.572;2023-09-30T14:26:06;8.93;;;6.95;;
58436;SDS011;73022;43.604;10.572;2023-09-30T14:28:36;9.98;;;6.88;;
58436;SDS011;73022;43.604;10.572;2023-09-30T14:31:03;7.78;;;6.95;;
58436;SDS011;73022;43.604;10.572;2023-09-30T14:33:29;7.68;;;6.95;;
58436;SDS011;73022;43.604;10.572;2023-09-30T14:35:55;7.18;;;6.47;;
58436;SDS011;73022;43.604;10.572;2023-09-30T14:38:22;10.30;;;6.40;;
58436;SDS011;73022;43.604;10.572;2023-09-30T14:40:48;9.07;;;6.67;;
58436;SDS011;73022;43.604;10.572;2023-09-30T14:43:15;7.97;;;6.47;;
58436;SDS011;73022;43.604;10.572;2023-09-30T14:45:41;8.30;;;7.13;;
58436;SDS011;73022;43.604;10.572;2023-09-30T14:48:07;9.40;;;6.32;;
58436;SDS011;73022;43.604;10.572;2023-09-30T14:50:35;7.47;;;6.40;;
58436;SDS011;73022;43.604;10.572;2023-09-30T14:53:04;8.70;;;6.53;;
58436;SDS011;73022;43.604;10.572;2023-09-30T14:55:31;8.77;;;6.50;;
58436;SDS011;73022;43.604;10.572;2023-09-30T14:57:57;9.65;;;6.72;;
58436;SDS011;73022;43.604;10.572;2023-09-30T15:00:23;7.72;;;6.93;;
58436;SDS011;73022;43.604;10.572;2023-09-30T15:02:51;7.65;;;6.72;;
58436;SDS011;73022;43.604;10.572;2023-09-30T15:05:20;7.50;;;6.57;;
58436;SDS011;73022;43.604;10.572;2023-09-30T15:07:47;8.27;;;7.15;;
58436;SDS011;73022;43.604;10.572;2023-09-30T15:10:13;7.68;;;6.75;;